Terminal Aerodrome Forecast
Issued by NWS Mt. Holly, NJ

Home | Current Version | Previous Version | Text Only | Print | Product List | Glossary On
Versions: 1 2 3 4 5 6 7 8 9 10 11 12 13 14 15 16 17 18 19 20 21 22 23 24 25 26 27 28 29 30 31
000
FTUS41 KPHI 022047 AAA
TAFPHL
TAF AMD
KPHL 022047Z 0221/0324 05010KT 6SM -SHRA BR SCT010 OVC020
      TEMPO 0221/0224 4SM -SHRA OVC010
     FM030400 08008KT 6SM BR OVC005
     FM031500 07010KT P6SM SCT009 OVC020=

USA.gov is the U.S. government's official web portal to all federal, state and local government web resources and services.